Skip Navigation LinksHome page > Weather > Current weather Skip Navigation Links

Current Weather

New Tokyo International (Narita), Tokyo

For information only: do not use for flight planning or navigation.
Latest weather
Observation time Tuesday, May 23, 2017 12:00 AM JST
Local time Tuesday, May 23, 2017 12:41 AM JST
Flight conditions Visual Meteorological Conditions
Winds
Wind direction South-Southeast (150°)
Wind speed 7 mph
Visibility 6.2 mi.
Sky condition
Ceiling unlimited
Sky clear
Temperature 63°F
Dewpoint 61°F
Altimeter 29.91 in.Hg
Derived measurements
Relative humidity 94%
Density altitude 638 ft.
Remarks
Ceiling and visibility OK.
No significant changes expected in the next two hours.
METAR RJAA 221500Z 15006KT CAVOK 17/16 Q1013 NOSIG RMK A2993

Settings

Location code

InnerDrive.Weather 4.0.6144.1 Release CLR 4.0.30319.36366
Copyright ©2015 Inner Drive Technology. All rights reserved. Portions Copyright ©1986-2015 David Braverman.

Find weather

Site navigation


Skip Navigation Links

Place info

Page info

PayPal - The safer, easier way to pay online!

Return home.

Copyright ©2017 Inner Drive Technology. Purveyors of fine, hand-crafted computer software. Page printed 2017-05-22T15:41:17 UTC.